sensor_id;sensor_type;location;lat;lon;timestamp;P1;durP1;ratioP1;P2;durP2;ratioP2
4274;SDS011;2151;50.988;11.068;2023-07-31T00:01:28;119.67;;;8.83;;
4274;SDS011;2151;50.988;11.068;2023-07-31T00:03:54;116.80;;;8.70;;
4274;SDS011;2151;50.988;11.068;2023-07-31T00:06:21;121.80;;;8.93;;
4274;SDS011;2151;50.988;11.068;2023-07-31T00:08:47;119.27;;;8.30;;
4274;SDS011;2151;50.988;11.068;2023-07-31T00:11:14;117.10;;;8.17;;
4274;SDS011;2151;50.988;11.068;2023-07-31T00:13:40;120.10;;;9.27;;
4274;SDS011;2151;50.988;11.068;2023-07-31T00:16:07;118.13;;;8.50;;
4274;SDS011;2151;50.988;11.068;2023-07-31T00:18:33;118.10;;;8.40;;
4274;SDS011;2151;50.988;11.068;2023-07-31T00:21:00;119.90;;;8.27;;
4274;SDS011;2151;50.988;11.068;2023-07-31T00:23:26;117.30;;;8.67;;
4274;SDS011;2151;50.988;11.068;2023-07-31T00:25:53;119.40;;;8.70;;
4274;SDS011;2151;50.988;11.068;2023-07-31T00:28:20;119.20;;;9.20;;
4274;SDS011;2151;50.988;11.068;2023-07-31T00:30:46;117.90;;;8.90;;
4274;SDS011;2151;50.988;11.068;2023-07-31T00:33:13;119.40;;;9.13;;
4274;SDS011;2151;50.988;11.068;2023-07-31T00:35:39;121.37;;;9.03;;
4274;SDS011;2151;50.988;11.068;2023-07-31T00:38:06;118.37;;;8.30;;
4274;SDS011;2151;50.988;11.068;2023-07-31T00:40:35;119.13;;;10.13;;
4274;SDS011;2151;50.988;11.068;2023-07-31T00:43:05;116.70;;;9.20;;
4274;SDS011;2151;50.988;11.068;2023-07-31T00:45:32;119.37;;;9.50;;
4274;SDS011;2151;50.988;11.068;2023-07-31T00:47:59;118.37;;;9.03;;
4274;SDS011;2151;50.988;11.068;2023-07-31T00:50:25;116.67;;;9.00;;
4274;SDS011;2151;50.988;11.068;2023-07-31T00:52:53;117.60;;;8.97;;
4274;SDS011;2151;50.988;11.068;2023-07-31T00:55:19;116.90;;;8.97;;
4274;SDS011;2151;50.988;11.068;2023-07-31T00:57:48;116.73;;;8.77;;
4274;SDS011;2151;50.988;11.068;2023-07-31T01:00:14;119.03;;;10.13;;
4274;SDS011;2151;50.988;11.068;2023-07-31T01:02:41;117.03;;;9.00;;
4274;SDS011;2151;50.988;11.068;2023-07-31T01:05:07;117.07;;;8.60;;
4274;SDS011;2151;50.988;11.068;2023-07-31T01:12:50;116.93;;;9.00;;
4274;SDS011;2151;50.988;11.068;2023-07-31T01:15:17;119.90;;;9.70;;
4274;SDS011;2151;50.988;11.068;2023-07-31T01:17:44;127.30;;;9.20;;
4274;SDS011;2151;50.988;11.068;2023-07-31T01:20:12;118.30;;;8.60;;
4274;SDS011;2151;50.988;11.068;2023-07-31T01:31:13;118.20;;;8.93;;
4274;SDS011;2151;50.988;11.068;2023-07-31T01:33:49;116.50;;;8.67;;
4274;SDS011;2151;50.988;11.068;2023-07-31T01:36:17;122.37;;;9.20;;
4274;SDS011;2151;50.988;11.068;2023-07-31T01:38:43;119.27;;;9.07;;
4274;SDS011;2151;50.988;11.068;2023-07-31T01:41:10;123.17;;;9.47;;
4274;SDS011;2151;50.988;11.068;2023-07-31T01:43:36;117.87;;;9.23;;
4274;SDS011;2151;50.988;11.068;2023-07-31T01:46:03;120.63;;;9.20;;
4274;SDS011;2151;50.988;11.068;2023-07-31T01:48:29;117.87;;;9.40;;
4274;SDS011;2151;50.988;11.068;2023-07-31T01:51:02;120.50;;;9.37;;
4274;SDS011;2151;50.988;11.068;2023-07-31T01:53:29;117.30;;;9.20;;
4274;SDS011;2151;50.988;11.068;2023-07-31T01:55:57;119.83;;;9.83;;
4274;SDS011;2151;50.988;11.068;2023-07-31T01:58:24;119.23;;;10.00;;
4274;SDS011;2151;50.988;11.068;2023-07-31T02:00:50;118.70;;;9.87;;
4274;SDS011;2151;50.988;11.068;2023-07-31T02:03:17;122.93;;;10.30;;
4274;SDS011;2151;50.988;11.068;2023-07-31T02:05:47;121.10;;;9.33;;
4274;SDS011;2151;50.988;11.068;2023-07-31T02:08:14;119.63;;;9.70;;
4274;SDS011;2151;50.988;11.068;2023-07-31T02:10:41;117.70;;;8.80;;
4274;SDS011;2151;50.988;11.068;2023-07-31T02:13:08;121.80;;;9.40;;
4274;SDS011;2151;50.988;11.068;2023-07-31T02:15:35;119.47;;;10.10;;
4274;SDS011;2151;50.988;11.068;2023-07-31T02:18:01;118.00;;;10.20;;
4274;SDS011;2151;50.988;11.068;2023-07-31T02:20:28;118.97;;;9.77;;
4274;SDS011;2151;50.988;11.068;2023-07-31T02:22:54;119.57;;;9.50;;
4274;SDS011;2151;50.988;11.068;2023-07-31T02:25:21;117.40;;;9.37;;
4274;SDS011;2151;50.988;11.068;2023-07-31T02:27:48;116.77;;;8.80;;
4274;SDS011;2151;50.988;11.068;2023-07-31T02:30:14;116.50;;;9.00;;
4274;SDS011;2151;50.988;11.068;2023-07-31T02:32:42;118.20;;;8.50;;
4274;SDS011;2151;50.988;11.068;2023-07-31T02:35:09;117.33;;;8.60;;
4274;SDS011;2151;50.988;11.068;2023-07-31T02:37:36;115.70;;;8.10;;
4274;SDS011;2151;50.988;11.068;2023-07-31T02:40:02;119.70;;;7.40;;
4274;SDS011;2151;50.988;11.068;2023-07-31T02:42:29;119.10;;;7.17;;
4274;SDS011;2151;50.988;11.068;2023-07-31T02:44:56;114.47;;;7.43;;
4274;SDS011;2151;50.988;11.068;2023-07-31T02:47:22;115.27;;;7.57;;
4274;SDS011;2151;50.988;11.068;2023-07-31T02:49:49;120.30;;;7.80;;
4274;SDS011;2151;50.988;11.068;2023-07-31T02:52:16;117.13;;;8.17;;
4274;SDS011;2151;50.988;11.068;2023-07-31T02:54:42;115.67;;;7.77;;
4274;SDS011;2151;50.988;11.068;2023-07-31T02:57:09;118.87;;;7.03;;
4274;SDS011;2151;50.988;11.068;2023-07-31T02:59:36;115.77;;;7.60;;
4274;SDS011;2151;50.988;11.068;2023-07-31T03:02:03;114.30;;;7.10;;
4274;SDS011;2151;50.988;11.068;2023-07-31T03:04:30;121.10;;;9.13;;
4274;SDS011;2151;50.988;11.068;2023-07-31T03:06:56;114.07;;;7.80;;
4274;SDS011;2151;50.988;11.068;2023-07-31T03:09:23;114.70;;;7.27;;
4274;SDS011;2151;50.988;11.068;2023-07-31T03:11:50;118.60;;;7.40;;
4274;SDS011;2151;50.988;11.068;2023-07-31T03:14:16;123.77;;;7.23;;
4274;SDS011;2151;50.988;11.068;2023-07-31T03:16:43;116.60;;;8.13;;
4274;SDS011;2151;50.988;11.068;2023-07-31T03:19:10;114.67;;;7.43;;
4274;SDS011;2151;50.988;11.068;2023-07-31T03:21:36;114.87;;;6.83;;
4274;SDS011;2151;50.988;11.068;2023-07-31T03:24:03;115.10;;;6.97;;
4274;SDS011;2151;50.988;11.068;2023-07-31T03:26:33;121.37;;;7.40;;
4274;SDS011;2151;50.988;11.068;2023-07-31T03:29:00;116.97;;;6.60;;
4274;SDS011;2151;50.988;11.068;2023-07-31T03:31:27;123.40;;;7.30;;
4274;SDS011;2151;50.988;11.068;2023-07-31T03:33:53;114.30;;;6.60;;
4274;SDS011;2151;50.988;11.068;2023-07-31T03:36:20;115.40;;;6.50;;
4274;SDS011;2151;50.988;11.068;2023-07-31T03:38:46;115.97;;;6.47;;
4274;SDS011;2151;50.988;11.068;2023-07-31T03:41:13;112.57;;;5.80;;
4274;SDS011;2151;50.988;11.068;2023-07-31T03:43:40;115.57;;;6.77;;
4274;SDS011;2151;50.988;11.068;2023-07-31T03:46:06;114.07;;;6.40;;
4274;SDS011;2151;50.988;11.068;2023-07-31T03:48:33;115.30;;;6.27;;
4274;SDS011;2151;50.988;11.068;2023-07-31T03:50:59;113.60;;;6.00;;
4274;SDS011;2151;50.988;11.068;2023-07-31T03:53:26;114.37;;;6.57;;
4274;SDS011;2151;50.988;11.068;2023-07-31T03:55:52;116.27;;;6.83;;
4274;SDS011;2151;50.988;11.068;2023-07-31T03:58:19;114.60;;;6.43;;
4274;SDS011;2151;50.988;11.068;2023-07-31T04:00:46;119.43;;;6.93;;
4274;SDS011;2151;50.988;11.068;2023-07-31T04:03:13;116.07;;;7.60;;
4274;SDS011;2151;50.988;11.068;2023-07-31T04:05:40;114.07;;;6.23;;
4274;SDS011;2151;50.988;11.068;2023-07-31T04:08:06;114.10;;;6.30;;
4274;SDS011;2151;50.988;11.068;2023-07-31T04:10:34;114.63;;;6.00;;
4274;SDS011;2151;50.988;11.068;2023-07-31T04:13:00;115.50;;;6.13;;
4274;SDS011;2151;50.988;11.068;2023-07-31T04:15:27;114.80;;;6.27;;
4274;SDS011;2151;50.988;11.068;2023-07-31T04:17:53;114.30;;;6.00;;
4274;SDS011;2151;50.988;11.068;2023-07-31T04:20:20;116.97;;;6.77;;
4274;SDS011;2151;50.988;11.068;2023-07-31T04:22:47;114.00;;;6.60;;
4274;SDS011;2151;50.988;11.068;2023-07-31T04:25:14;115.27;;;6.23;;
4274;SDS011;2151;50.988;11.068;2023-07-31T04:27:40;116.50;;;7.37;;
4274;SDS011;2151;50.988;11.068;2023-07-31T04:30:08;118.10;;;7.20;;
4274;SDS011;2151;50.988;11.068;2023-07-31T04:32:35;116.50;;;6.60;;
4274;SDS011;2151;50.988;11.068;2023-07-31T04:35:02;114.80;;;6.23;;
4274;SDS011;2151;50.988;11.068;2023-07-31T04:37:29;115.23;;;6.60;;
4274;SDS011;2151;50.988;11.068;2023-07-31T04:39:55;116.00;;;6.47;;
4274;SDS011;2151;50.988;11.068;2023-07-31T04:42:22;114.90;;;6.30;;
4274;SDS011;2151;50.988;11.068;2023-07-31T04:44:49;115.37;;;6.57;;
4274;SDS011;2151;50.988;11.068;2023-07-31T04:47:15;113.60;;;6.20;;
4274;SDS011;2151;50.988;11.068;2023-07-31T04:49:42;117.10;;;6.90;;
4274;SDS011;2151;50.988;11.068;2023-07-31T04:52:09;114.70;;;6.43;;
4274;SDS011;2151;50.988;11.068;2023-07-31T04:54:35;114.17;;;6.87;;
4274;SDS011;2151;50.988;11.068;2023-07-31T04:57:02;120.27;;;7.27;;
4274;SDS011;2151;50.988;11.068;2023-07-31T04:59:28;114.87;;;7.50;;
4274;SDS011;2151;50.988;11.068;2023-07-31T05:01:55;116.70;;;7.30;;
4274;SDS011;2151;50.988;11.068;2023-07-31T05:04:23;118.10;;;7.83;;
4274;SDS011;2151;50.988;11.068;2023-07-31T05:06:50;119.07;;;7.70;;
4274;SDS011;2151;50.988;11.068;2023-07-31T05:09:16;114.57;;;7.80;;
4274;SDS011;2151;50.988;11.068;2023-07-31T05:11:43;117.37;;;8.30;;
4274;SDS011;2151;50.988;11.068;2023-07-31T05:14:09;116.17;;;8.60;;
4274;SDS011;2151;50.988;11.068;2023-07-31T05:16:36;118.53;;;8.73;;
4274;SDS011;2151;50.988;11.068;2023-07-31T05:19:03;115.87;;;9.13;;
4274;SDS011;2151;50.988;11.068;2023-07-31T05:21:30;122.23;;;9.20;;
4274;SDS011;2151;50.988;11.068;2023-07-31T05:23:56;116.80;;;9.03;;
4274;SDS011;2151;50.988;11.068;2023-07-31T05:26:23;115.90;;;9.50;;
4274;SDS011;2151;50.988;11.068;2023-07-31T05:28:50;116.37;;;9.30;;
4274;SDS011;2151;50.988;11.068;2023-07-31T05:31:16;119.20;;;9.40;;
4274;SDS011;2151;50.988;11.068;2023-07-31T05:33:43;116.17;;;9.37;;
4274;SDS011;2151;50.988;11.068;2023-07-31T05:36:10;122.23;;;9.73;;
4274;SDS011;2151;50.988;11.068;2023-07-31T05:38:36;121.20;;;8.97;;
4274;SDS011;2151;50.988;11.068;2023-07-31T05:41:04;128.10;;;9.80;;
4274;SDS011;2151;50.988;11.068;2023-07-31T05:43:31;120.27;;;9.93;;
4274;SDS011;2151;50.988;11.068;2023-07-31T05:45:57;118.17;;;9.43;;
4274;SDS011;2151;50.988;11.068;2023-07-31T05:48:24;122.43;;;9.73;;
4274;SDS011;2151;50.988;11.068;2023-07-31T05:50:50;120.50;;;9.40;;
4274;SDS011;2151;50.988;11.068;2023-07-31T05:53:17;117.57;;;9.00;;
4274;SDS011;2151;50.988;11.068;2023-07-31T05:55:44;120.63;;;9.83;;
4274;SDS011;2151;50.988;11.068;2023-07-31T05:58:10;121.17;;;9.07;;
4274;SDS011;2151;50.988;11.068;2023-07-31T06:00:37;124.40;;;11.23;;
4274;SDS011;2151;50.988;11.068;2023-07-31T06:03:03;117.27;;;8.80;;
4274;SDS011;2151;50.988;11.068;2023-07-31T06:05:30;121.03;;;9.40;;
4274;SDS011;2151;50.988;11.068;2023-07-31T06:07:57;121.37;;;9.60;;
4274;SDS011;2151;50.988;11.068;2023-07-31T06:10:24;121.33;;;9.33;;
4274;SDS011;2151;50.988;11.068;2023-07-31T06:12:50;118.53;;;9.33;;
4274;SDS011;2151;50.988;11.068;2023-07-31T06:15:17;119.67;;;8.97;;
4274;SDS011;2151;50.988;11.068;2023-07-31T06:17:45;118.27;;;9.17;;
4274;SDS011;2151;50.988;11.068;2023-07-31T06:20:12;118.43;;;9.10;;
4274;SDS011;2151;50.988;11.068;2023-07-31T06:22:39;122.87;;;9.60;;
4274;SDS011;2151;50.988;11.068;2023-07-31T06:25:05;120.43;;;9.00;;
4274;SDS011;2151;50.988;11.068;2023-07-31T06:27:32;119.57;;;9.47;;
4274;SDS011;2151;50.988;11.068;2023-07-31T06:29:58;117.20;;;9.07;;
4274;SDS011;2151;50.988;11.068;2023-07-31T06:32:25;119.27;;;9.07;;
4274;SDS011;2151;50.988;11.068;2023-07-31T06:34:52;121.97;;;9.67;;
4274;SDS011;2151;50.988;11.068;2023-07-31T06:37:18;118.97;;;9.30;;
4274;SDS011;2151;50.988;11.068;2023-07-31T06:39:45;125.03;;;9.53;;
4274;SDS011;2151;50.988;11.068;2023-07-31T06:42:11;121.80;;;9.70;;
4274;SDS011;2151;50.988;11.068;2023-07-31T06:44:38;117.70;;;9.30;;
4274;SDS011;2151;50.988;11.068;2023-07-31T06:47:05;123.10;;;10.50;;
4274;SDS011;2151;50.988;11.068;2023-07-31T06:49:31;117.60;;;9.07;;
4274;SDS011;2151;50.988;11.068;2023-07-31T06:51:58;118.97;;;9.40;;
4274;SDS011;2151;50.988;11.068;2023-07-31T06:54:24;120.30;;;9.47;;
4274;SDS011;2151;50.988;11.068;2023-07-31T06:56:51;119.57;;;9.50;;
4274;SDS011;2151;50.988;11.068;2023-07-31T06:59:17;118.27;;;9.00;;
4274;SDS011;2151;50.988;11.068;2023-07-31T07:01:44;121.87;;;9.97;;
4274;SDS011;2151;50.988;11.068;2023-07-31T07:04:11;123.53;;;9.90;;
4274;SDS011;2151;50.988;11.068;2023-07-31T07:06:37;120.80;;;9.30;;
4274;SDS011;2151;50.988;11.068;2023-07-31T07:09:04;120.77;;;10.00;;
4274;SDS011;2151;50.988;11.068;2023-07-31T07:11:31;121.10;;;9.57;;
4274;SDS011;2151;50.988;11.068;2023-07-31T07:13:57;119.87;;;9.70;;
4274;SDS011;2151;50.988;11.068;2023-07-31T07:16:25;122.77;;;10.00;;
4274;SDS011;2151;50.988;11.068;2023-07-31T07:18:51;120.87;;;9.07;;
4274;SDS011;2151;50.988;11.068;2023-07-31T07:21:30;123.13;;;9.67;;
4274;SDS011;2151;50.988;11.068;2023-07-31T07:23:56;119.70;;;9.40;;
4274;SDS011;2151;50.988;11.068;2023-07-31T07:26:23;123.47;;;9.27;;
4274;SDS011;2151;50.988;11.068;2023-07-31T07:28:50;118.30;;;9.23;;
4274;SDS011;2151;50.988;11.068;2023-07-31T07:31:16;123.23;;;9.37;;
4274;SDS011;2151;50.988;11.068;2023-07-31T07:33:43;119.20;;;9.13;;
4274;SDS011;2151;50.988;11.068;2023-07-31T07:36:10;120.70;;;8.63;;
4274;SDS011;2151;50.988;11.068;2023-07-31T07:38:38;119.07;;;9.10;;
4274;SDS011;2151;50.988;11.068;2023-07-31T07:41:05;128.23;;;9.17;;
4274;SDS011;2151;50.988;11.068;2023-07-31T07:43:32;119.20;;;9.10;;
4274;SDS011;2151;50.988;11.068;2023-07-31T07:45:58;120.50;;;8.67;;
4274;SDS011;2151;50.988;11.068;2023-07-31T07:48:25;118.57;;;8.90;;
4274;SDS011;2151;50.988;11.068;2023-07-31T07:50:52;118.80;;;8.67;;
4274;SDS011;2151;50.988;11.068;2023-07-31T07:53:18;118.87;;;8.20;;
4274;SDS011;2151;50.988;11.068;2023-07-31T07:55:45;119.70;;;8.30;;
4274;SDS011;2151;50.988;11.068;2023-07-31T07:58:11;122.20;;;8.20;;
4274;SDS011;2151;50.988;11.068;2023-07-31T08:00:39;120.30;;;8.53;;
4274;SDS011;2151;50.988;11.068;2023-07-31T08:03:05;118.07;;;8.43;;
4274;SDS011;2151;50.988;11.068;2023-07-31T08:05:32;119.37;;;8.23;;
4274;SDS011;2151;50.988;11.068;2023-07-31T08:08:00;118.43;;;7.63;;
4274;SDS011;2151;50.988;11.068;2023-07-31T08:10:27;119.67;;;7.63;;
4274;SDS011;2151;50.988;11.068;2023-07-31T08:12:54;118.30;;;7.07;;
4274;SDS011;2151;50.988;11.068;2023-07-31T08:15:20;119.47;;;7.17;;
4274;SDS011;2151;50.988;11.068;2023-07-31T08:17:47;116.77;;;7.00;;
4274;SDS011;2151;50.988;11.068;2023-07-31T08:20:14;115.30;;;5.90;;
4274;SDS011;2151;50.988;11.068;2023-07-31T08:22:41;121.30;;;6.63;;
4274;SDS011;2151;50.988;11.068;2023-07-31T08:25:07;119.80;;;7.13;;
4274;SDS011;2151;50.988;11.068;2023-07-31T08:27:34;117.60;;;7.20;;
4274;SDS011;2151;50.988;11.068;2023-07-31T08:30:01;121.30;;;6.80;;
4274;SDS011;2151;50.988;11.068;2023-07-31T08:32:27;118.90;;;7.30;;
4274;SDS011;2151;50.988;11.068;2023-07-31T08:34:54;119.80;;;7.33;;
4274;SDS011;2151;50.988;11.068;2023-07-31T08:37:20;126.27;;;8.47;;
4274;SDS011;2151;50.988;11.068;2023-07-31T08:39:47;129.03;;;8.27;;
4274;SDS011;2151;50.988;11.068;2023-07-31T08:42:13;118.57;;;7.40;;
4274;SDS011;2151;50.988;11.068;2023-07-31T08:44:40;119.23;;;7.57;;
4274;SDS011;2151;50.988;11.068;2023-07-31T08:47:07;121.60;;;8.20;;
4274;SDS011;2151;50.988;11.068;2023-07-31T08:49:34;123.40;;;7.23;;
4274;SDS011;2151;50.988;11.068;2023-07-31T08:52:01;119.47;;;7.80;;
4274;SDS011;2151;50.988;11.068;2023-07-31T08:54:28;117.60;;;7.50;;
4274;SDS011;2151;50.988;11.068;2023-07-31T08:56:57;120.00;;;7.80;;
4274;SDS011;2151;50.988;11.068;2023-07-31T08:59:27;116.93;;;7.67;;
4274;SDS011;2151;50.988;11.068;2023-07-31T09:01:55;117.77;;;7.70;;
4274;SDS011;2151;50.988;11.068;2023-07-31T09:04:24;117.10;;;7.10;;
4274;SDS011;2151;50.988;11.068;2023-07-31T09:06:51;117.03;;;6.80;;
4274;SDS011;2151;50.988;11.068;2023-07-31T09:09:23;115.47;;;6.70;;
4274;SDS011;2151;50.988;11.068;2023-07-31T09:11:50;118.47;;;6.67;;
4274;SDS011;2151;50.988;11.068;2023-07-31T09:14:17;119.83;;;6.53;;
4274;SDS011;2151;50.988;11.068;2023-07-31T09:16:51;116.57;;;6.20;;
4274;SDS011;2151;50.988;11.068;2023-07-31T09:19:27;114.17;;;6.17;;
4274;SDS011;2151;50.988;11.068;2023-07-31T09:22:00;116.60;;;5.90;;
4274;SDS011;2151;50.988;11.068;2023-07-31T09:24:31;111.40;;;5.63;;
4274;SDS011;2151;50.988;11.068;2023-07-31T09:26:59;112.73;;;5.93;;
4274;SDS011;2151;50.988;11.068;2023-07-31T09:29:27;114.60;;;5.60;;
4274;SDS011;2151;50.988;11.068;2023-07-31T09:31:55;112.17;;;5.73;;
4274;SDS011;2151;50.988;11.068;2023-07-31T09:34:28;111.50;;;6.00;;
4274;SDS011;2151;50.988;11.068;2023-07-31T09:37:06;114.77;;;5.80;;
4274;SDS011;2151;50.988;11.068;2023-07-31T09:39:43;112.20;;;5.83;;
4274;SDS011;2151;50.988;11.068;2023-07-31T09:42:12;115.00;;;6.10;;
4274;SDS011;2151;50.988;11.068;2023-07-31T09:44:39;112.20;;;5.73;;
4274;SDS011;2151;50.988;11.068;2023-07-31T09:47:22;120.63;;;6.50;;
4274;SDS011;2151;50.988;11.068;2023-07-31T09:49:53;113.50;;;5.93;;
4274;SDS011;2151;50.988;11.068;2023-07-31T09:52:20;113.47;;;6.00;;
4274;SDS011;2151;50.988;11.068;2023-07-31T09:54:46;110.70;;;5.20;;
4274;SDS011;2151;50.988;11.068;2023-07-31T09:57:13;115.20;;;6.10;;
4274;SDS011;2151;50.988;11.068;2023-07-31T09:59:43;113.30;;;5.97;;
4274;SDS011;2151;50.988;11.068;2023-07-31T10:02:13;112.07;;;5.40;;
4274;SDS011;2151;50.988;11.068;2023-07-31T10:04:42;113.37;;;6.57;;
4274;SDS011;2151;50.988;11.068;2023-07-31T10:07:12;112.63;;;5.80;;
4274;SDS011;2151;50.988;11.068;2023-07-31T10:09:38;113.37;;;5.97;;
4274;SDS011;2151;50.988;11.068;2023-07-31T10:12:06;111.67;;;5.90;;
4274;SDS011;2151;50.988;11.068;2023-07-31T10:14:36;111.23;;;6.13;;
4274;SDS011;2151;50.988;11.068;2023-07-31T10:17:02;112.23;;;6.07;;
4274;SDS011;2151;50.988;11.068;2023-07-31T10:19:31;116.07;;;6.53;;
4274;SDS011;2151;50.988;11.068;2023-07-31T10:21:57;113.37;;;6.60;;
4274;SDS011;2151;50.988;11.068;2023-07-31T10:24:25;112.30;;;5.30;;
4274;SDS011;2151;50.988;11.068;2023-07-31T10:26:53;116.20;;;6.23;;
4274;SDS011;2151;50.988;11.068;2023-07-31T10:29:24;115.17;;;6.27;;
4274;SDS011;2151;50.988;11.068;2023-07-31T10:31:51;111.10;;;5.90;;
4274;SDS011;2151;50.988;11.068;2023-07-31T10:34:18;110.67;;;5.50;;
4274;SDS011;2151;50.988;11.068;2023-07-31T10:36:46;111.07;;;5.40;;
4274;SDS011;2151;50.988;11.068;2023-07-31T10:39:33;112.83;;;6.73;;
4274;SDS011;2151;50.988;11.068;2023-07-31T10:42:09;112.30;;;6.23;;
4274;SDS011;2151;50.988;11.068;2023-07-31T10:44:36;112.10;;;5.70;;
4274;SDS011;2151;50.988;11.068;2023-07-31T10:47:04;121.03;;;6.87;;
4274;SDS011;2151;50.988;11.068;2023-07-31T10:49:31;110.33;;;5.80;;
4274;SDS011;2151;50.988;11.068;2023-07-31T10:51:58;109.40;;;5.33;;
4274;SDS011;2151;50.988;11.068;2023-07-31T10:54:25;112.37;;;6.17;;
4274;SDS011;2151;50.988;11.068;2023-07-31T10:56:54;115.70;;;6.80;;
4274;SDS011;2151;50.988;11.068;2023-07-31T10:59:26;111.97;;;5.90;;
4274;SDS011;2151;50.988;11.068;2023-07-31T11:01:55;116.83;;;5.77;;
4274;SDS011;2151;50.988;11.068;2023-07-31T11:04:29;116.17;;;6.40;;
4274;SDS011;2151;50.988;11.068;2023-07-31T11:07:01;111.93;;;5.70;;
4274;SDS011;2151;50.988;11.068;2023-07-31T11:09:29;113.90;;;6.20;;
4274;SDS011;2151;50.988;11.068;2023-07-31T11:12:01;112.80;;;5.83;;
4274;SDS011;2151;50.988;11.068;2023-07-31T11:14:28;112.87;;;6.27;;
4274;SDS011;2151;50.988;11.068;2023-07-31T11:16:54;114.67;;;6.43;;
4274;SDS011;2151;50.988;11.068;2023-07-31T11:19:24;111.17;;;5.70;;
4274;SDS011;2151;50.988;11.068;2023-07-31T11:21:54;120.30;;;6.30;;
4274;SDS011;2151;50.988;11.068;2023-07-31T11:24:21;114.30;;;6.10;;
4274;SDS011;2151;50.988;11.068;2023-07-31T11:26:51;111.37;;;5.60;;
4274;SDS011;2151;50.988;11.068;2023-07-31T11:29:18;113.57;;;7.30;;
4274;SDS011;2151;50.988;11.068;2023-07-31T11:31:46;112.77;;;6.40;;
4274;SDS011;2151;50.988;11.068;2023-07-31T11:34:14;112.30;;;5.67;;
4274;SDS011;2151;50.988;11.068;2023-07-31T11:36:54;117.67;;;5.57;;
4274;SDS011;2151;50.988;11.068;2023-07-31T11:42:01;111.93;;;5.37;;
4274;SDS011;2151;50.988;11.068;2023-07-31T11:44:36;117.07;;;5.87;;
4274;SDS011;2151;50.988;11.068;2023-07-31T11:47:04;110.60;;;5.63;;
4274;SDS011;2151;50.988;11.068;2023-07-31T11:49:31;112.20;;;5.50;;
4274;SDS011;2151;50.988;11.068;2023-07-31T11:52:00;117.10;;;5.93;;
4274;SDS011;2151;50.988;11.068;2023-07-31T11:54:27;113.17;;;6.10;;
4274;SDS011;2151;50.988;11.068;2023-07-31T11:56:53;111.63;;;5.53;;
4274;SDS011;2151;50.988;11.068;2023-07-31T11:59:20;112.77;;;5.80;;
4274;SDS011;2151;50.988;11.068;2023-07-31T12:01:47;112.23;;;5.97;;
4274;SDS011;2151;50.988;11.068;2023-07-31T12:04:16;114.90;;;5.83;;
4274;SDS011;2151;50.988;11.068;2023-07-31T12:06:43;110.80;;;5.77;;
4274;SDS011;2151;50.988;11.068;2023-07-31T12:09:10;111.77;;;6.13;;
4274;SDS011;2151;50.988;11.068;2023-07-31T12:11:43;109.03;;;5.07;;
4274;SDS011;2151;50.988;11.068;2023-07-31T12:14:29;110.50;;;5.40;;
4274;SDS011;2151;50.988;11.068;2023-07-31T12:17:00;111.40;;;5.40;;
4274;SDS011;2151;50.988;11.068;2023-07-31T12:19:28;110.97;;;5.70;;
4274;SDS011;2151;50.988;11.068;2023-07-31T12:21:56;109.60;;;5.27;;
4274;SDS011;2151;50.988;11.068;2023-07-31T12:24:23;110.33;;;4.90;;
4274;SDS011;2151;50.988;11.068;2023-07-31T12:26:50;109.03;;;5.90;;
4274;SDS011;2151;50.988;11.068;2023-07-31T12:29:17;109.47;;;5.50;;
4274;SDS011;2151;50.988;11.068;2023-07-31T12:31:44;111.27;;;5.30;;
4274;SDS011;2151;50.988;11.068;2023-07-31T12:34:15;108.60;;;5.40;;
4274;SDS011;2151;50.988;11.068;2023-07-31T12:36:44;108.57;;;5.00;;
4274;SDS011;2151;50.988;11.068;2023-07-31T12:39:10;114.00;;;4.90;;
4274;SDS011;2151;50.988;11.068;2023-07-31T12:41:38;108.77;;;4.60;;
4274;SDS011;2151;50.988;11.068;2023-07-31T12:44:05;110.43;;;5.50;;
4274;SDS011;2151;50.988;11.068;2023-07-31T12:46:32;110.40;;;5.20;;
4274;SDS011;2151;50.988;11.068;2023-07-31T12:48:59;107.30;;;4.60;;
4274;SDS011;2151;50.988;11.068;2023-07-31T12:51:26;109.17;;;4.77;;
4274;SDS011;2151;50.988;11.068;2023-07-31T12:53:52;108.60;;;5.23;;
4274;SDS011;2151;50.988;11.068;2023-07-31T12:56:19;109.87;;;4.60;;
4274;SDS011;2151;50.988;11.068;2023-07-31T12:58:45;109.87;;;4.77;;
4274;SDS011;2151;50.988;11.068;2023-07-31T13:01:12;112.03;;;5.83;;
4274;SDS011;2151;50.988;11.068;2023-07-31T13:03:39;111.27;;;4.67;;
4274;SDS011;2151;50.988;11.068;2023-07-31T13:06:06;112.07;;;4.60;;
4274;SDS011;2151;50.988;11.068;2023-07-31T13:08:32;107.60;;;5.00;;
4274;SDS011;2151;50.988;11.068;2023-07-31T13:10:59;110.30;;;4.90;;
4274;SDS011;2151;50.988;11.068;2023-07-31T13:13:25;108.13;;;4.90;;
4274;SDS011;2151;50.988;11.068;2023-07-31T13:15:52;108.03;;;4.60;;
4274;SDS011;2151;50.988;11.068;2023-07-31T13:18:19;112.77;;;4.90;;
4274;SDS011;2151;50.988;11.068;2023-07-31T13:20:45;107.90;;;5.10;;
4274;SDS011;2151;50.988;11.068;2023-07-31T13:23:12;111.63;;;4.67;;
4274;SDS011;2151;50.988;11.068;2023-07-31T13:25:38;107.83;;;4.60;;
4274;SDS011;2151;50.988;11.068;2023-07-31T13:28:05;107.63;;;4.50;;
4274;SDS011;2151;50.988;11.068;2023-07-31T13:30:32;106.90;;;4.73;;
4274;SDS011;2151;50.988;11.068;2023-07-31T13:32:59;107.80;;;4.57;;
4274;SDS011;2151;50.988;11.068;2023-07-31T13:35:25;108.20;;;4.90;;
4274;SDS011;2151;50.988;11.068;2023-07-31T13:37:52;108.77;;;5.13;;
4274;SDS011;2151;50.988;11.068;2023-07-31T13:40:19;109.53;;;5.27;;
4274;SDS011;2151;50.988;11.068;2023-07-31T13:42:45;109.27;;;5.47;;
4274;SDS011;2151;50.988;11.068;2023-07-31T13:45:14;110.60;;;5.23;;
4274;SDS011;2151;50.988;11.068;2023-07-31T13:47:40;109.97;;;5.30;;
4274;SDS011;2151;50.988;11.068;2023-07-31T13:50:07;108.07;;;4.90;;
4274;SDS011;2151;50.988;11.068;2023-07-31T13:52:34;107.23;;;5.00;;
4274;SDS011;2151;50.988;11.068;2023-07-31T13:55:01;107.80;;;4.63;;
4274;SDS011;2151;50.988;11.068;2023-07-31T13:57:27;106.87;;;4.80;;
4274;SDS011;2151;50.988;11.068;2023-07-31T13:59:54;108.77;;;5.10;;
4274;SDS011;2151;50.988;11.068;2023-07-31T14:02:21;106.87;;;5.00;;
4274;SDS011;2151;50.988;11.068;2023-07-31T14:04:48;107.93;;;5.33;;
4274;SDS011;2151;50.988;11.068;2023-07-31T14:07:14;105.27;;;4.57;;
4274;SDS011;2151;50.988;11.068;2023-07-31T14:09:41;108.27;;;5.07;;
4274;SDS011;2151;50.988;11.068;2023-07-31T14:12:08;108.10;;;5.17;;
4274;SDS011;2151;50.988;11.068;2023-07-31T14:14:34;108.43;;;5.30;;
4274;SDS011;2151;50.988;11.068;2023-07-31T14:17:01;107.07;;;4.97;;
4274;SDS011;2151;50.988;11.068;2023-07-31T14:19:30;107.87;;;4.87;;
4274;SDS011;2151;50.988;11.068;2023-07-31T14:21:58;106.80;;;5.10;;
4274;SDS011;2151;50.988;11.068;2023-07-31T14:24:37;106.87;;;5.17;;
4274;SDS011;2151;50.988;11.068;2023-07-31T14:27:04;107.73;;;5.13;;
4274;SDS011;2151;50.988;11.068;2023-07-31T14:29:31;108.93;;;5.07;;
4274;SDS011;2151;50.988;11.068;2023-07-31T14:31:58;109.77;;;5.50;;
4274;SDS011;2151;50.988;11.068;2023-07-31T14:34:27;109.17;;;4.47;;
4274;SDS011;2151;50.988;11.068;2023-07-31T14:36:56;106.60;;;4.80;;
4274;SDS011;2151;50.988;11.068;2023-07-31T14:39:23;108.40;;;5.30;;
4274;SDS011;2151;50.988;11.068;2023-07-31T14:41:50;109.47;;;5.33;;
4274;SDS011;2151;50.988;11.068;2023-07-31T14:44:17;108.70;;;5.50;;
4274;SDS011;2151;50.988;11.068;2023-07-31T14:46:44;107.67;;;5.23;;
4274;SDS011;2151;50.988;11.068;2023-07-31T14:49:10;109.07;;;5.20;;
4274;SDS011;2151;50.988;11.068;2023-07-31T14:51:37;107.67;;;6.07;;